sensor_id;sensor_type;location;lat;lon;timestamp;pressure;altitude;pressure_sealevel;temperature;humidity
39197;BME280;42889;51.112;13.772;2022-07-23T00:00:13;99233.03;;;18.83;76.17
39197;BME280;42889;51.112;13.772;2022-07-23T00:02:40;99238.06;;;18.73;76.81
39197;BME280;42889;51.112;13.772;2022-07-23T00:05:07;99237.00;;;18.61;77.46
39197;BME280;42889;51.112;13.772;2022-07-23T00:07:33;99235.31;;;18.47;78.11
39197;BME280;42889;51.112;13.772;2022-07-23T00:10:00;99242.44;;;18.41;78.99
39197;BME280;42889;51.112;13.772;2022-07-23T00:12:27;99228.59;;;18.49;78.47
39197;BME280;42889;51.112;13.772;2022-07-23T00:14:53;99231.75;;;18.46;78.70
39197;BME280;42889;51.112;13.772;2022-07-23T00:17:20;99223.97;;;18.43;79.08
39197;BME280;42889;51.112;13.772;2022-07-23T00:19:46;99226.25;;;18.26;79.77
39197;BME280;42889;51.112;13.772;2022-07-23T00:22:13;99222.09;;;18.30;79.78
39197;BME280;42889;51.112;13.772;2022-07-23T00:24:40;99227.97;;;18.40;79.40
39197;BME280;42889;51.112;13.772;2022-07-23T00:27:06;99228.78;;;18.34;79.89
39197;BME280;42889;51.112;13.772;2022-07-23T00:29:33;99236.34;;;18.39;79.37
39197;BME280;42889;51.112;13.772;2022-07-23T00:31:59;99231.09;;;18.44;79.38
39197;BME280;42889;51.112;13.772;2022-07-23T00:34:26;99221.88;;;18.45;79.44
39197;BME280;42889;51.112;13.772;2022-07-23T00:36:53;99215.63;;;18.58;78.74
39197;BME280;42889;51.112;13.772;2022-07-23T00:39:20;99218.97;;;18.47;79.37
39197;BME280;42889;51.112;13.772;2022-07-23T00:41:50;99213.91;;;18.57;79.27
39197;BME280;42889;51.112;13.772;2022-07-23T00:44:25;99217.69;;;18.56;80.42
39197;BME280;42889;51.112;13.772;2022-07-23T00:46:54;99215.19;;;18.48;81.04
39197;BME280;42889;51.112;13.772;2022-07-23T00:49:22;99217.94;;;18.67;81.31
39197;BME280;42889;51.112;13.772;2022-07-23T00:51:50;99209.97;;;18.73;81.11
39197;BME280;42889;51.112;13.772;2022-07-23T00:54:18;99216.69;;;18.77;81.31
39197;BME280;42889;51.112;13.772;2022-07-23T00:56:45;99216.69;;;18.77;80.96
39197;BME280;42889;51.112;13.772;2022-07-23T00:59:13;99222.16;;;18.90;80.26
39197;BME280;42889;51.112;13.772;2022-07-23T01:01:41;99217.13;;;18.80;81.20
39197;BME280;42889;51.112;13.772;2022-07-23T01:04:08;99203.47;;;19.00;80.45
39197;BME280;42889;51.112;13.772;2022-07-23T01:06:36;99212.28;;;19.02;79.88
39197;BME280;42889;51.112;13.772;2022-07-23T01:09:04;99213.34;;;18.75;81.63
39197;BME280;42889;51.112;13.772;2022-07-23T01:11:35;99203.47;;;18.87;80.87
39197;BME280;42889;51.112;13.772;2022-07-23T01:14:10;99211.03;;;18.85;80.83
39197;BME280;42889;51.112;13.772;2022-07-23T01:16:37;99207.25;;;18.92;80.94
39197;BME280;42889;51.112;13.772;2022-07-23T01:19:04;99202.00;;;18.98;80.70
39197;BME280;42889;51.112;13.772;2022-07-23T01:21:36;99191.72;;;19.13;80.00
39197;BME280;42889;51.112;13.772;2022-07-23T01:24:03;99192.53;;;19.20;79.71
39197;BME280;42889;51.112;13.772;2022-07-23T01:26:30;99182.22;;;19.22;79.86
39197;BME280;42889;51.112;13.772;2022-07-23T01:28:56;99180.16;;;19.17;80.15
39197;BME280;42889;51.112;13.772;2022-07-23T01:31:24;99184.13;;;19.15;80.10
39197;BME280;42889;51.112;13.772;2022-07-23T01:33:56;99169.66;;;19.21;79.49
39197;BME280;42889;51.112;13.772;2022-07-23T01:36:26;99161.72;;;19.13;79.85
39197;BME280;42889;51.112;13.772;2022-07-23T01:38:52;99152.88;;;19.11;80.06
39197;BME280;42889;51.112;13.772;2022-07-23T01:41:19;99151.22;;;19.03;80.20
39197;BME280;42889;51.112;13.772;2022-07-23T01:43:46;99155.47;;;18.86;81.27
39197;BME280;42889;51.112;13.772;2022-07-23T01:46:13;99137.44;;;18.85;81.27
39197;BME280;42889;51.112;13.772;2022-07-23T01:48:42;99134.69;;;18.72;81.81
39197;BME280;42889;51.112;13.772;2022-07-23T01:51:08;99133.19;;;18.62;82.72
39197;BME280;42889;51.112;13.772;2022-07-23T01:53:35;99128.19;;;18.59;82.78
39197;BME280;42889;51.112;13.772;2022-07-23T01:56:02;99128.41;;;18.64;82.67
39197;BME280;42889;51.112;13.772;2022-07-23T01:58:30;99121.25;;;18.57;82.98
39197;BME280;42889;51.112;13.772;2022-07-23T02:00:56;99128.41;;;18.44;84.10
39197;BME280;42889;51.112;13.772;2022-07-23T02:03:24;99135.34;;;18.40;84.30
39197;BME280;42889;51.112;13.772;2022-07-23T02:05:51;99124.63;;;18.46;84.17
39197;BME280;42889;51.112;13.772;2022-07-23T02:08:17;99124.00;;;18.43;84.23
39197;BME280;42889;51.112;13.772;2022-07-23T02:10:44;99121.25;;;18.57;83.50
39197;BME280;42889;51.112;13.772;2022-07-23T02:13:12;99117.09;;;18.54;84.08
39197;BME280;42889;51.112;13.772;2022-07-23T02:15:46;99119.81;;;18.48;84.05
39197;BME280;42889;51.112;13.772;2022-07-23T02:18:13;99125.88;;;18.43;83.81
39197;BME280;42889;51.112;13.772;2022-07-23T02:20:40;99120.44;;;18.36;84.52
39197;BME280;42889;51.112;13.772;2022-07-23T02:23:06;99121.47;;;18.22;85.33
39197;BME280;42889;51.112;13.772;2022-07-23T02:25:33;99123.81;;;18.19;85.42
39197;BME280;42889;51.112;13.772;2022-07-23T02:28:00;99113.31;;;18.09;86.00
39197;BME280;42889;51.112;13.772;2022-07-23T02:30:27;99112.44;;;18.02;86.24
39197;BME280;42889;51.112;13.772;2022-07-23T02:32:54;99111.38;;;17.96;86.68
39197;BME280;42889;51.112;13.772;2022-07-23T02:35:20;99113.94;;;18.04;86.58
39197;BME280;42889;51.112;13.772;2022-07-23T02:37:47;99130.03;;;17.99;86.53
39197;BME280;42889;51.112;13.772;2022-07-23T02:40:16;99120.00;;;18.00;86.77
39197;BME280;42889;51.112;13.772;2022-07-23T02:42:43;99120.22;;;17.98;86.56
39197;BME280;42889;51.112;13.772;2022-07-23T02:45:10;99119.16;;;17.93;87.51
39197;BME280;42889;51.112;13.772;2022-07-23T02:47:36;99114.31;;;17.88;87.65
39197;BME280;42889;51.112;13.772;2022-07-23T02:50:04;99111.81;;;17.86;87.43
39197;BME280;42889;51.112;13.772;2022-07-23T02:52:31;99099.44;;;17.84;87.81
39197;BME280;42889;51.112;13.772;2022-07-23T02:54:58;99102.78;;;17.79;88.00
39197;BME280;42889;51.112;13.772;2022-07-23T02:57:24;99095.03;;;17.76;88.31
39197;BME280;42889;51.112;13.772;2022-07-23T02:59:51;99090.16;;;17.72;88.63
39197;BME280;42889;51.112;13.772;2022-07-23T03:02:18;99079.91;;;17.67;89.15
39197;BME280;42889;51.112;13.772;2022-07-23T03:04:44;99080.78;;;17.74;88.85
39197;BME280;42889;51.112;13.772;2022-07-23T03:07:11;99083.72;;;17.73;88.82
39197;BME280;42889;51.112;13.772;2022-07-23T03:09:38;99091.88;;;17.73;88.49
39197;BME280;42889;51.112;13.772;2022-07-23T03:12:04;99094.59;;;17.79;88.18
39197;BME280;42889;51.112;13.772;2022-07-23T03:14:39;99096.72;;;17.77;87.88
39197;BME280;42889;51.112;13.772;2022-07-23T03:17:05;99094.22;;;17.82;87.97
39197;BME280;42889;51.112;13.772;2022-07-23T03:19:32;99096.00;;;17.69;89.04
39197;BME280;42889;51.112;13.772;2022-07-23T03:21:59;99097.75;;;17.83;87.63
39197;BME280;42889;51.112;13.772;2022-07-23T03:24:25;99097.97;;;17.88;87.30
39197;BME280;42889;51.112;13.772;2022-07-23T03:27:12;99089.81;;;17.88;87.57
39197;BME280;42889;51.112;13.772;2022-07-23T03:29:38;99094.22;;;17.89;87.01
39197;BME280;42889;51.112;13.772;2022-07-23T03:32:05;99085.59;;;17.85;87.10
39197;BME280;42889;51.112;13.772;2022-07-23T03:34:33;99084.78;;;17.85;87.97
39197;BME280;42889;51.112;13.772;2022-07-23T03:37:00;99085.00;;;17.90;87.30
39197;BME280;42889;51.112;13.772;2022-07-23T03:39:28;99075.78;;;17.84;87.74
39197;BME280;42889;51.112;13.772;2022-07-23T03:41:55;99075.81;;;17.91;87.07
39197;BME280;42889;51.112;13.772;2022-07-23T03:44:21;99068.88;;;17.75;88.25
39197;BME280;42889;51.112;13.772;2022-07-23T03:46:48;99068.25;;;17.86;87.83
39197;BME280;42889;51.112;13.772;2022-07-23T03:49:15;99074.31;;;17.95;87.74
39197;BME280;42889;51.112;13.772;2022-07-23T03:51:42;99080.81;;;18.07;87.08
39197;BME280;42889;51.112;13.772;2022-07-23T03:54:08;99074.13;;;18.16;85.99
39197;BME280;42889;51.112;13.772;2022-07-23T03:56:35;99077.28;;;18.27;85.99
39197;BME280;42889;51.112;13.772;2022-07-23T03:59:02;99080.41;;;18.43;84.88
39197;BME280;42889;51.112;13.772;2022-07-23T04:01:30;99063.63;;;18.40;84.49
39197;BME280;42889;51.112;13.772;2022-07-23T04:03:56;99073.31;;;18.36;85.07
39197;BME280;42889;51.112;13.772;2022-07-23T04:06:23;99071.19;;;18.38;84.93
39197;BME280;42889;51.112;13.772;2022-07-23T04:08:49;99077.47;;;18.58;83.75
39197;BME280;42889;51.112;13.772;2022-07-23T04:11:16;99090.03;;;18.73;83.19
39197;BME280;42889;51.112;13.772;2022-07-23T04:13:43;99081.66;;;18.67;83.30
39197;BME280;42889;51.112;13.772;2022-07-23T04:16:09;99084.38;;;18.61;83.71
39197;BME280;42889;51.112;13.772;2022-07-23T04:18:36;99080.59;;;18.62;83.90
39197;BME280;42889;51.112;13.772;2022-07-23T04:21:02;99086.25;;;18.67;84.01
39197;BME280;42889;51.112;13.772;2022-07-23T04:23:29;99088.75;;;18.82;83.09
39197;BME280;42889;51.112;13.772;2022-07-23T04:25:55;99085.84;;;18.70;83.76
39197;BME280;42889;51.112;13.772;2022-07-23T04:28:23;99083.72;;;18.65;84.30
39197;BME280;42889;51.112;13.772;2022-07-23T04:30:49;99070.94;;;18.66;84.03
39197;BME280;42889;51.112;13.772;2022-07-23T04:33:16;99077.91;;;18.68;83.43
39197;BME280;42889;51.112;13.772;2022-07-23T04:35:42;99079.56;;;18.76;82.45
39197;BME280;42889;51.112;13.772;2022-07-23T04:38:09;99087.69;;;18.89;82.26
39197;BME280;42889;51.112;13.772;2022-07-23T04:40:36;99098.41;;;18.91;81.46
39197;BME280;42889;51.112;13.772;2022-07-23T04:43:02;99098.63;;;18.83;81.79
39197;BME280;42889;51.112;13.772;2022-07-23T04:45:29;99084.97;;;18.83;82.23
39197;BME280;42889;51.112;13.772;2022-07-23T04:47:55;99082.06;;;18.64;83.11
39197;BME280;42889;51.112;13.772;2022-07-23T04:50:23;99074.94;;;18.63;82.42
39197;BME280;42889;51.112;13.772;2022-07-23T04:52:50;99074.94;;;18.57;82.57
39197;BME280;42889;51.112;13.772;2022-07-23T04:55:17;99079.13;;;18.59;83.12
39197;BME280;42889;51.112;13.772;2022-07-23T04:57:44;99085.22;;;18.48;83.90
39197;BME280;42889;51.112;13.772;2022-07-23T05:00:11;99079.53;;;18.56;84.12
39197;BME280;42889;51.112;13.772;2022-07-23T05:02:38;99077.47;;;18.72;82.71
39197;BME280;42889;51.112;13.772;2022-07-23T05:05:05;99069.06;;;18.73;82.84
39197;BME280;42889;51.112;13.772;2022-07-23T05:07:31;99066.97;;;18.75;82.45
39197;BME280;42889;51.112;13.772;2022-07-23T05:09:58;99067.78;;;18.82;82.13
39197;BME280;42889;51.112;13.772;2022-07-23T05:12:25;99076.97;;;18.94;80.98
39197;BME280;42889;51.112;13.772;2022-07-23T05:14:51;99079.50;;;18.96;80.40
39197;BME280;42889;51.112;13.772;2022-07-23T05:17:19;99080.16;;;18.91;80.68
39197;BME280;42889;51.112;13.772;2022-07-23T05:19:46;99083.72;;;18.79;81.51
39197;BME280;42889;51.112;13.772;2022-07-23T05:22:12;99094.41;;;18.87;81.39
39197;BME280;42889;51.112;13.772;2022-07-23T05:24:39;99106.53;;;19.04;80.60
39197;BME280;42889;51.112;13.772;2022-07-23T05:27:05;99103.38;;;19.07;80.76
39197;BME280;42889;51.112;13.772;2022-07-23T05:29:32;99101.81;;;19.31;78.62
39197;BME280;42889;51.112;13.772;2022-07-23T05:31:58;99105.00;;;19.21;79.44
39197;BME280;42889;51.112;13.772;2022-07-23T05:34:25;99105.84;;;19.29;78.98
39197;BME280;42889;51.112;13.772;2022-07-23T05:36:51;99098.44;;;19.36;78.65
39197;BME280;42889;51.112;13.772;2022-07-23T05:39:18;99095.72;;;19.36;78.34
39197;BME280;42889;51.112;13.772;2022-07-23T05:41:44;99106.66;;;19.29;78.42
39197;BME280;42889;51.112;13.772;2022-07-23T05:44:11;99125.75;;;19.36;78.86
39197;BME280;42889;51.112;13.772;2022-07-23T05:46:38;99133.66;;;19.44;78.42
39197;BME280;42889;51.112;13.772;2022-07-23T05:49:04;99158.00;;;19.59;77.06
39197;BME280;42889;51.112;13.772;2022-07-23T05:51:32;99170.94;;;19.77;76.69
39197;BME280;42889;51.112;13.772;2022-07-23T05:53:59;99169.94;;;19.64;78.07
39197;BME280;42889;51.112;13.772;2022-07-23T05:56:26;99164.53;;;19.51;78.33
39197;BME280;42889;51.112;13.772;2022-07-23T05:58:52;99148.63;;;19.35;78.93
39197;BME280;42889;51.112;13.772;2022-07-23T06:01:19;99161.03;;;19.31;79.15
39197;BME280;42889;51.112;13.772;2022-07-23T06:03:45;99166.09;;;19.20;79.93
39197;BME280;42889;51.112;13.772;2022-07-23T06:06:12;99186.63;;;19.30;79.13
39197;BME280;42889;51.112;13.772;2022-07-23T06:08:38;99192.97;;;19.10;80.42
39197;BME280;42889;51.112;13.772;2022-07-23T06:11:05;99198.22;;;19.18;79.76
39197;BME280;42889;51.112;13.772;2022-07-23T06:13:31;99208.06;;;19.13;79.93
39197;BME280;42889;51.112;13.772;2022-07-23T06:15:58;99195.88;;;19.15;79.74
39197;BME280;42889;51.112;13.772;2022-07-23T06:18:25;99198.44;;;19.04;79.94
39197;BME280;42889;51.112;13.772;2022-07-23T06:20:51;99204.75;;;18.91;81.03
39197;BME280;42889;51.112;13.772;2022-07-23T06:23:25;99212.06;;;18.84;81.36
39197;BME280;42889;51.112;13.772;2022-07-23T06:25:52;99221.94;;;18.91;81.05
39197;BME280;42889;51.112;13.772;2022-07-23T06:28:19;99220.06;;;18.85;80.83
39197;BME280;42889;51.112;13.772;2022-07-23T06:30:45;99221.31;;;18.76;81.46
39197;BME280;42889;51.112;13.772;2022-07-23T06:33:12;99220.47;;;18.69;81.61
39197;BME280;42889;51.112;13.772;2022-07-23T06:35:38;99223.41;;;18.87;80.88
39197;BME280;42889;51.112;13.772;2022-07-23T06:38:05;99225.91;;;18.82;81.10
39197;BME280;42889;51.112;13.772;2022-07-23T06:40:33;99236.44;;;18.85;81.66
39197;BME280;42889;51.112;13.772;2022-07-23T06:43:00;99235.81;;;18.90;81.49
39197;BME280;42889;51.112;13.772;2022-07-23T06:45:26;99237.66;;;18.83;80.54
39197;BME280;42889;51.112;13.772;2022-07-23T06:47:53;99226.78;;;18.96;79.88
39197;BME280;42889;51.112;13.772;2022-07-23T06:50:20;99230.34;;;18.97;80.17
39197;BME280;42889;51.112;13.772;2022-07-23T06:52:46;99225.91;;;18.89;79.61
39197;BME280;42889;51.112;13.772;2022-07-23T06:55:13;99236.19;;;19.20;78.32
39197;BME280;42889;51.112;13.772;2022-07-23T06:57:40;99210.97;;;19.31;78.53
39197;BME280;42889;51.112;13.772;2022-07-23T07:00:07;99212.63;;;19.39;77.75
39197;BME280;42889;51.112;13.772;2022-07-23T07:02:34;99213.66;;;19.44;76.79
39197;BME280;42889;51.112;13.772;2022-07-23T07:05:01;99210.53;;;19.41;75.83
39197;BME280;42889;51.112;13.772;2022-07-23T07:07:31;99203.78;;;19.43;75.87
39197;BME280;42889;51.112;13.772;2022-07-23T07:09:58;99214.97;;;19.22;77.13
39197;BME280;42889;51.112;13.772;2022-07-23T07:12:25;99217.03;;;19.46;76.06
39197;BME280;42889;51.112;13.772;2022-07-23T07:14:51;99189.66;;;19.66;76.57
39197;BME280;42889;51.112;13.772;2022-07-23T07:17:18;99187.47;;;19.88;74.01
39197;BME280;42889;51.112;13.772;2022-07-23T07:19:44;99188.16;;;20.22;72.24
39197;BME280;42889;51.112;13.772;2022-07-23T07:22:11;99196.25;;;20.35;71.04
39197;BME280;42889;51.112;13.772;2022-07-23T07:24:37;99181.41;;;20.56;71.17
39197;BME280;42889;51.112;13.772;2022-07-23T07:27:04;99197.94;;;20.68;68.79
39197;BME280;42889;51.112;13.772;2022-07-23T07:29:31;99203.03;;;20.58;69.10
39197;BME280;42889;51.112;13.772;2022-07-23T07:31:58;99195.97;;;20.75;68.77
39197;BME280;42889;51.112;13.772;2022-07-23T07:34:24;99197.47;;;20.71;69.31
39197;BME280;42889;51.112;13.772;2022-07-23T07:36:51;99202.78;;;20.66;68.44
39197;BME280;42889;51.112;13.772;2022-07-23T07:39:17;99212.13;;;20.51;68.62
39197;BME280;42889;51.112;13.772;2022-07-23T07:41:44;99207.03;;;20.62;68.92
39197;BME280;42889;51.112;13.772;2022-07-23T07:44:10;99194.41;;;20.61;70.48
39197;BME280;42889;51.112;13.772;2022-07-23T07:46:37;99200.03;;;20.91;68.66
39197;BME280;42889;51.112;13.772;2022-07-23T07:49:04;99219.09;;;21.22;66.53
39197;BME280;42889;51.112;13.772;2022-07-23T07:51:31;99206.50;;;21.21;66.18
39197;BME280;42889;51.112;13.772;2022-07-23T07:54:00;99209.03;;;21.78;65.59
39197;BME280;42889;51.112;13.772;2022-07-23T07:56:27;99215.22;;;22.22;62.95
39197;BME280;42889;51.112;13.772;2022-07-23T07:58:54;99221.78;;;22.62;60.62
39197;BME280;42889;51.112;13.772;2022-07-23T08:01:20;99210.25;;;22.84;59.45
39197;BME280;42889;51.112;13.772;2022-07-23T08:03:47;99193.31;;;22.64;59.69
39197;BME280;42889;51.112;13.772;2022-07-23T08:06:14;99187.75;;;22.94;60.69
39197;BME280;42889;51.112;13.772;2022-07-23T08:08:40;99168.78;;;23.04;58.82
39197;BME280;42889;51.112;13.772;2022-07-23T08:11:07;99176.41;;;23.02;58.94
39197;BME280;42889;51.112;13.772;2022-07-23T08:13:33;99187.28;;;22.97;59.60
39197;BME280;42889;51.112;13.772;2022-07-23T08:16:00;99188.34;;;23.07;60.04
39197;BME280;42889;51.112;13.772;2022-07-23T08:18:27;99187.03;;;23.22;59.38
39197;BME280;42889;51.112;13.772;2022-07-23T08:20:54;99186.53;;;23.36;58.91
39197;BME280;42889;51.112;13.772;2022-07-23T08:23:20;99171.09;;;23.59;56.73
39197;BME280;42889;51.112;13.772;2022-07-23T08:25:53;99168.69;;;23.74;58.03
39197;BME280;42889;51.112;13.772;2022-07-23T08:28:19;99163.38;;;23.84;57.35
39197;BME280;42889;51.112;13.772;2022-07-23T08:30:46;99181.09;;;23.77;56.12
39197;BME280;42889;51.112;13.772;2022-07-23T08:33:15;99178.25;;;23.72;56.15
39197;BME280;42889;51.112;13.772;2022-07-23T08:36:00;99177.91;;;23.45;57.11
39197;BME280;42889;51.112;13.772;2022-07-23T08:38:26;99175.66;;;23.65;56.50
39197;BME280;42889;51.112;13.772;2022-07-23T08:40:56;99175.78;;;23.47;56.72
39197;BME280;42889;51.112;13.772;2022-07-23T08:43:27;99171.84;;;23.43;57.50
39197;BME280;42889;51.112;13.772;2022-07-23T08:45:56;99176.34;;;23.60;57.95
39197;BME280;42889;51.112;13.772;2022-07-23T08:48:34;99182.56;;;23.56;56.41
39197;BME280;42889;51.112;13.772;2022-07-23T08:51:05;99173.63;;;23.49;57.63
39197;BME280;42889;51.112;13.772;2022-07-23T08:53:34;99171.09;;;23.71;56.94
39197;BME280;42889;51.112;13.772;2022-07-23T08:56:05;99178.59;;;23.75;57.07
39197;BME280;42889;51.112;13.772;2022-07-23T08:58:34;99180.84;;;23.90;57.05
39197;BME280;42889;51.112;13.772;2022-07-23T09:01:01;99183.91;;;23.93;55.97
39197;BME280;42889;51.112;13.772;2022-07-23T09:03:34;99192.31;;;23.87;55.48
39197;BME280;42889;51.112;13.772;2022-07-23T09:06:01;99192.16;;;24.22;54.33
39197;BME280;42889;51.112;13.772;2022-07-23T09:08:42;99195.00;;;24.27;56.30
39197;BME280;42889;51.112;13.772;2022-07-23T09:11:09;99195.69;;;24.63;53.32
39197;BME280;42889;51.112;13.772;2022-07-23T09:13:45;99199.00;;;24.98;52.53
39197;BME280;42889;51.112;13.772;2022-07-23T09:16:27;99200.84;;;24.93;53.47
39197;BME280;42889;51.112;13.772;2022-07-23T09:18:57;99211.13;;;25.14;52.64
39197;BME280;42889;51.112;13.772;2022-07-23T09:21:28;99217.47;;;25.54;51.36
39197;BME280;42889;51.112;13.772;2022-07-23T09:23:58;99209.34;;;25.42;51.46
39197;BME280;42889;51.112;13.772;2022-07-23T09:29:06;99204.19;;;26.60;49.11
39197;BME280;42889;51.112;13.772;2022-07-23T09:31:43;99207.00;;;27.87;45.42
39197;BME280;42889;51.112;13.772;2022-07-23T09:36:42;99191.66;;;27.59;44.68
39197;BME280;42889;51.112;13.772;2022-07-23T09:39:10;99189.50;;;27.24;47.99
39197;BME280;42889;51.112;13.772;2022-07-23T09:41:40;99201.38;;;26.55;48.05
39197;BME280;42889;51.112;13.772;2022-07-23T09:46:39;99220.00;;;25.94;49.57
39197;BME280;42889;51.112;13.772;2022-07-23T09:49:11;99224.50;;;25.61;50.35
39197;BME280;42889;51.112;13.772;2022-07-23T09:51:47;99233.56;;;25.79;50.28
39197;BME280;42889;51.112;13.772;2022-07-23T09:54:37;99230.56;;;25.80;48.97
39197;BME280;42889;51.112;13.772;2022-07-23T09:57:11;99230.31;;;26.31;49.38
39197;BME280;42889;51.112;13.772;2022-07-23T09:59:44;99223.44;;;27.62;46.09
39197;BME280;42889;51.112;13.772;2022-07-23T10:02:13;99228.94;;;28.09;43.77
39197;BME280;42889;51.112;13.772;2022-07-23T10:04:41;99223.00;;;28.78;43.32
39197;BME280;42889;51.112;13.772;2022-07-23T10:07:08;99220.22;;;28.43;43.07
39197;BME280;42889;51.112;13.772;2022-07-23T10:09:38;99230.34;;;28.17;43.74
39197;BME280;42889;51.112;13.772;2022-07-23T10:12:10;99231.91;;;27.87;43.75
39197;BME280;42889;51.112;13.772;2022-07-23T10:14:38;99236.81;;;27.80;44.60
39197;BME280;42889;51.112;13.772;2022-07-23T10:17:06;99240.44;;;27.38;46.57
39197;BME280;42889;51.112;13.772;2022-07-23T10:19:33;99246.66;;;26.91;47.09
39197;BME280;42889;51.112;13.772;2022-07-23T10:22:09;99244.88;;;26.48;47.54
39197;BME280;42889;51.112;13.772;2022-07-23T10:27:32;99240.38;;;26.96;46.02
39197;BME280;42889;51.112;13.772;2022-07-23T10:30:04;99234.28;;;26.94;45.64
39197;BME280;42889;51.112;13.772;2022-07-23T10:35:29;99246.25;;;28.42;43.25
39197;BME280;42889;51.112;13.772;2022-07-23T10:41:01;99251.88;;;29.13;41.74
39197;BME280;42889;51.112;13.772;2022-07-23T10:43:31;99256.25;;;28.73;42.09
39197;BME280;42889;51.112;13.772;2022-07-23T10:46:21;99252.94;;;28.71;42.04
39197;BME280;42889;51.112;13.772;2022-07-23T10:49:30;99257.81;;;30.12;38.62
39197;BME280;42889;51.112;13.772;2022-07-23T10:52:17;99253.06;;;30.67;37.88
39197;BME280;42889;51.112;13.772;2022-07-23T10:57:20;99267.81;;;31.94;35.42
39197;BME280;42889;51.112;13.772;2022-07-23T11:02:42;99267.56;;;31.37;36.52
39197;BME280;42889;51.112;13.772;2022-07-23T11:05:14;99266.50;;;32.10;35.07
39197;BME280;42889;51.112;13.772;2022-07-23T11:10:35;99273.09;;;29.94;38.95
39197;BME280;42889;51.112;13.772;2022-07-23T11:31:56;99291.50;;;26.71;47.65
39197;BME280;42889;51.112;13.772;2022-07-23T11:34:39;99296.16;;;26.66;47.82
39197;BME280;42889;51.112;13.772;2022-07-23T11:37:10;99286.38;;;26.58;48.13
39197;BME280;42889;51.112;13.772;2022-07-23T11:39:37;99287.66;;;26.72;48.42
39197;BME280;42889;51.112;13.772;2022-07-23T11:42:06;99291.22;;;26.46;49.15
39197;BME280;42889;51.112;13.772;2022-07-23T11:44:37;99299.06;;;26.32;48.69
39197;BME280;42889;51.112;13.772;2022-07-23T11:47:07;99296.03;;;26.12;50.03
39197;BME280;42889;51.112;13.772;2022-07-23T11:49:35;99288.47;;;25.46;50.46
39197;BME280;42889;51.112;13.772;2022-07-23T11:52:04;99285.91;;;25.40;51.93
39197;BME280;42889;51.112;13.772;2022-07-23T11:54:36;99282.31;;;25.22;51.98
39197;BME280;42889;51.112;13.772;2022-07-23T11:57:06;99277.75;;;25.11;52.73
39197;BME280;42889;51.112;13.772;2022-07-23T11:59:33;99279.28;;;24.90;54.09
39197;BME280;42889;51.112;13.772;2022-07-23T12:02:04;99294.00;;;25.13;53.53
39197;BME280;42889;51.112;13.772;2022-07-23T12:04:41;99303.09;;;25.13;53.01
39197;BME280;42889;51.112;13.772;2022-07-23T12:09:59;99307.00;;;24.03;56.57
39197;BME280;42889;51.112;13.772;2022-07-23T12:12:27;99302.34;;;23.92;57.03
39197;BME280;42889;51.112;13.772;2022-07-23T12:14:58;99307.28;;;23.90;57.13
39197;BME280;42889;51.112;13.772;2022-07-23T12:17:30;99287.47;;;23.64;58.09
39197;BME280;42889;51.112;13.772;2022-07-23T12:19:58;99292.09;;;23.52;58.77
39197;BME280;42889;51.112;13.772;2022-07-23T12:22:37;99302.47;;;23.38;59.34
39197;BME280;42889;51.112;13.772;2022-07-23T12:25:10;99307.97;;;23.27;60.21
39197;BME280;42889;51.112;13.772;2022-07-23T12:27:37;99308.78;;;23.16;60.13
39197;BME280;42889;51.112;13.772;2022-07-23T12:30:26;99311.53;;;23.27;60.18
39197;BME280;42889;51.112;13.772;2022-07-23T12:32:59;99304.25;;;23.56;59.45
39197;BME280;42889;51.112;13.772;2022-07-23T12:35:38;99293.69;;;24.24;57.10
39197;BME280;42889;51.112;13.772;2022-07-23T12:38:08;99294.38;;;24.59;56.02
39197;BME280;42889;51.112;13.772;2022-07-23T12:40:52;99296.75;;;25.30;54.42
39197;BME280;42889;51.112;13.772;2022-07-23T12:43:28;99302.53;;;25.28;54.06
39197;BME280;42889;51.112;13.772;2022-07-23T12:46:02;99313.09;;;25.53;53.70
39197;BME280;42889;51.112;13.772;2022-07-23T12:53:30;99301.06;;;25.59;54.06
39197;BME280;42889;51.112;13.772;2022-07-23T12:56:04;99296.38;;;25.77;52.77
39197;BME280;42889;51.112;13.772;2022-07-23T13:01:09;99308.16;;;26.33;51.30
39197;BME280;42889;51.112;13.772;2022-07-23T13:03:41;99297.59;;;27.33;49.04
39197;BME280;42889;51.112;13.772;2022-07-23T13:06:10;99302.00;;;27.66;47.05
39197;BME280;42889;51.112;13.772;2022-07-23T13:08:38;99312.34;;;27.43;48.12
39197;BME280;42889;51.112;13.772;2022-07-23T13:11:06;99303.88;;;27.60;46.96
39197;BME280;42889;51.112;13.772;2022-07-23T13:13:34;99298.22;;;28.34;46.85
39197;BME280;42889;51.112;13.772;2022-07-23T13:16:01;99299.72;;;28.00;46.06
39197;BME280;42889;51.112;13.772;2022-07-23T13:18:36;99305.28;;;28.05;46.19
39197;BME280;42889;51.112;13.772;2022-07-23T13:21:02;99305.56;;;28.03;46.40
39197;BME280;42889;51.112;13.772;2022-07-23T13:23:29;99298.59;;;27.53;46.71
39197;BME280;42889;51.112;13.772;2022-07-23T13:25:56;99308.56;;;27.22;48.60
39197;BME280;42889;51.112;13.772;2022-07-23T13:28:23;99316.75;;;26.85;49.04
39197;BME280;42889;51.112;13.772;2022-07-23T13:30:51;99311.09;;;26.04;50.87
39197;BME280;42889;51.112;13.772;2022-07-23T13:33:20;99315.66;;;25.77;51.72
39197;BME280;42889;51.112;13.772;2022-07-23T13:35:47;99314.28;;;25.74;51.89
39197;BME280;42889;51.112;13.772;2022-07-23T13:38:15;99305.09;;;25.52;53.03
39197;BME280;42889;51.112;13.772;2022-07-23T13:40:45;99303.97;;;25.86;52.75
39197;BME280;42889;51.112;13.772;2022-07-23T13:43:14;99299.69;;;25.95;52.39
39197;BME280;42889;51.112;13.772;2022-07-23T13:45:48;99306.84;;;25.74;52.37
39197;BME280;42889;51.112;13.772;2022-07-23T13:48:16;99303.97;;;25.86;51.36
39197;BME280;42889;51.112;13.772;2022-07-23T13:50:44;99310.09;;;25.71;52.96